createdAt,value
2024-03-08T00:02:09.897Z,4.23
2024-03-08T00:05:13.390Z,4.05
2024-03-08T00:08:16.405Z,3.89
2024-03-08T00:11:19.573Z,4.00
2024-03-08T00:14:23.913Z,4.05
2024-03-08T00:17:28.280Z,4.14
2024-03-08T00:20:31.190Z,4.06
2024-03-08T00:23:34.539Z,3.96
2024-03-08T00:26:37.231Z,4.03
2024-03-08T00:29:41.327Z,3.83
2024-03-08T00:32:44.364Z,3.92
2024-03-08T00:35:47.241Z,3.87
2024-03-08T00:38:49.989Z,3.79
2024-03-08T00:41:52.707Z,3.88
2024-03-08T00:44:56.821Z,3.96
2024-03-08T00:47:59.553Z,3.80
2024-03-08T00:51:03.288Z,3.81
2024-03-08T00:54:06.264Z,3.80
2024-03-08T00:57:09.094Z,3.82
2024-03-08T01:00:14.258Z,3.69
2024-03-08T01:03:17.030Z,3.71
2024-03-08T01:06:19.685Z,3.78
2024-03-08T01:09:22.867Z,3.60
2024-03-08T01:12:26.014Z,3.66
2024-03-08T01:15:30.023Z,3.56
2024-03-08T01:18:33.082Z,3.72
2024-03-08T01:21:35.794Z,3.69
2024-03-08T01:24:38.793Z,3.54
2024-03-08T01:27:41.413Z,3.64
2024-03-08T01:30:46.433Z,3.61
2024-03-08T01:33:49.492Z,3.63
2024-03-08T01:36:52.192Z,3.43
2024-03-08T01:39:54.846Z,3.37
2024-03-08T01:42:57.812Z,3.38
2024-03-08T01:46:02.700Z,3.36
2024-03-08T01:49:06.192Z,3.40
2024-03-08T01:52:09.505Z,3.30
2024-03-08T01:55:12.173Z,3.28
2024-03-08T01:58:16.599Z,3.37
2024-03-08T02:01:21.129Z,3.24
2024-03-08T02:04:24.017Z,3.31
2024-03-08T02:07:27.235Z,3.13
2024-03-08T02:10:29.879Z,3.31
2024-03-08T02:13:32.847Z,3.13
2024-03-08T02:16:37.089Z,3.09
2024-03-08T02:19:39.725Z,3.18
2024-03-08T02:22:44.387Z,3.15
2024-03-08T02:25:47.146Z,3.20
2024-03-08T02:28:50.238Z,3.09
2024-03-08T02:31:53.642Z,2.98
2024-03-08T02:35:01.374Z,2.92
2024-03-08T02:38:06.592Z,2.96
2024-03-08T02:41:09.753Z,2.81
2024-03-08T02:44:13.160Z,2.89
2024-03-08T02:47:16.056Z,2.92
2024-03-08T02:50:18.798Z,2.92
2024-03-08T02:53:23.199Z,2.93
2024-03-08T02:56:25.856Z,2.95
2024-03-08T02:59:30.159Z,2.84
2024-03-08T03:02:32.827Z,3.06
2024-03-08T03:05:35.813Z,2.87
2024-03-08T03:08:39.926Z,2.80
2024-03-08T03:11:46.097Z,2.81
2024-03-08T03:14:49.122Z,2.73
2024-03-08T03:17:52.974Z,2.84
2024-03-08T03:20:55.864Z,2.76
2024-03-08T03:24:00.554Z,2.81
2024-03-08T03:27:11.667Z,2.71
2024-03-08T03:30:23.955Z,2.65
2024-03-08T03:33:26.732Z,2.68
2024-03-08T03:36:30.003Z,2.91
2024-03-08T03:39:35.243Z,2.78
2024-03-08T03:42:39.194Z,2.79
2024-03-08T03:45:42.536Z,2.67
2024-03-08T03:48:45.553Z,2.75
2024-03-08T03:51:48.339Z,2.53
2024-03-08T03:54:52.306Z,2.55
2024-03-08T03:57:55.165Z,2.68
2024-03-08T04:00:57.853Z,2.63
2024-03-08T04:04:00.517Z,2.68
2024-03-08T04:07:03.337Z,2.58
2024-03-08T04:10:09.375Z,2.64
2024-03-08T04:13:12.013Z,2.57
2024-03-08T04:16:14.825Z,2.78
2024-03-08T04:19:17.479Z,2.73
2024-03-08T04:22:20.417Z,2.70
2024-03-08T04:25:24.416Z,2.61
2024-03-08T04:28:27.409Z,2.55
2024-03-08T04:31:32.028Z,2.49
2024-03-08T04:34:34.964Z,2.52
2024-03-08T04:37:37.674Z,2.59
2024-03-08T04:40:41.720Z,2.65
2024-03-08T04:43:44.819Z,2.55
2024-03-08T04:46:47.936Z,2.61
2024-03-08T04:49:51.489Z,2.56
2024-03-08T04:52:54.215Z,2.66
2024-03-08T04:55:59.034Z,2.59
2024-03-08T04:59:01.712Z,2.60
2024-03-08T05:02:04.790Z,2.61
2024-03-08T05:05:08.301Z,2.65
2024-03-08T05:08:10.949Z,2.56
2024-03-08T05:11:15.747Z,2.71
2024-03-08T05:14:19.231Z,2.71
2024-03-08T05:17:21.920Z,2.65
2024-03-08T05:20:24.686Z,2.58
2024-03-08T05:23:27.370Z,2.52
2024-03-08T05:26:31.589Z,2.55
2024-03-08T05:29:34.580Z,2.46
2024-03-08T05:32:38.480Z,2.38
2024-03-08T05:35:41.206Z,2.62
2024-03-08T05:38:44.452Z,2.66
2024-03-08T05:41:49.089Z,2.64
2024-03-08T05:44:51.900Z,2.45
2024-03-08T05:47:54.880Z,2.01
2024-03-08T05:50:58.124Z,2.39
2024-03-08T05:54:02.179Z,2.60
2024-03-08T05:57:07.629Z,2.47
2024-03-08T06:00:12.882Z,2.66
2024-03-08T06:03:16.103Z,2.55
2024-03-08T06:06:19.179Z,2.56
2024-03-08T06:09:24.934Z,2.60
2024-03-08T06:12:33.458Z,2.66
2024-03-08T06:15:36.104Z,2.48
2024-03-08T06:18:40.725Z,2.68
2024-03-08T06:21:43.600Z,2.57
2024-03-08T06:24:46.244Z,2.46
2024-03-08T06:27:50.559Z,2.51
2024-03-08T06:30:54.002Z,2.54
2024-03-08T06:33:57.543Z,2.42
2024-03-08T06:37:01.899Z,2.50
2024-03-08T06:40:05.263Z,2.61
2024-03-08T06:43:09.355Z,2.80
2024-03-08T06:46:13.627Z,2.62
2024-03-08T06:49:16.354Z,2.71
2024-03-08T06:52:18.988Z,2.94
2024-03-08T06:55:22.019Z,2.80
2024-03-08T06:58:26.021Z,2.88
2024-03-08T07:01:29.239Z,2.85
2024-03-08T07:04:32.577Z,2.93
2024-03-08T07:07:35.231Z,3.05
2024-03-08T07:10:39.096Z,2.80
2024-03-08T07:13:43.066Z,3.11
2024-03-08T07:16:45.812Z,3.14
2024-03-08T07:19:49.171Z,2.65
2024-03-08T07:22:52.296Z,2.94
2024-03-08T07:25:55.010Z,3.04
2024-03-08T07:29:00.084Z,3.18
2024-03-08T07:32:15.571Z,3.19
2024-03-08T07:35:19.866Z,3.33
2024-03-08T07:38:22.666Z,3.11
2024-03-08T07:41:25.333Z,3.32
2024-03-08T07:44:30.796Z,3.37
2024-03-08T07:47:34.682Z,3.31
2024-03-08T07:50:38.502Z,3.02
2024-03-08T07:53:42.378Z,2.90
2024-03-08T07:56:45.067Z,3.23
2024-03-08T07:59:49.025Z,3.35
2024-03-08T08:02:51.663Z,3.59
2024-03-08T08:05:54.860Z,3.74
2024-03-08T08:08:57.507Z,3.69
2024-03-08T08:12:00.155Z,4.09
2024-03-08T08:15:04.553Z,4.21
2024-03-08T08:18:08.146Z,4.11
2024-03-08T08:21:11.967Z,3.96
2024-03-08T08:24:14.618Z,4.25
2024-03-08T08:27:17.248Z,4.78
2024-03-08T08:30:21.639Z,4.57
2024-03-08T08:33:26.519Z,4.94
2024-03-08T08:36:30.727Z,5.11
2024-03-08T08:39:33.833Z,5.15
2024-03-08T08:42:36.481Z,5.38
2024-03-08T08:45:40.490Z,5.51
2024-03-08T08:48:43.133Z,5.43
2024-03-08T08:51:51.042Z,5.75
2024-03-08T08:54:53.684Z,5.75
2024-03-08T08:57:57.130Z,6.01
2024-03-08T09:01:02.642Z,6.07
2024-03-08T09:04:05.317Z,6.21
2024-03-08T09:07:08.207Z,6.55
2024-03-08T09:13:28.446Z,6.61
2024-03-08T09:16:35.924Z,7.01
2024-03-08T09:19:38.624Z,6.97
2024-03-08T09:22:41.827Z,7.16
2024-03-08T09:25:46.635Z,7.37
2024-03-08T09:28:50.446Z,7.44
2024-03-08T09:31:54.601Z,7.53
2024-03-08T09:34:57.537Z,7.67
2024-03-08T09:38:00.213Z,7.74
2024-03-08T09:41:05.050Z,8.03
2024-03-08T09:44:07.777Z,8.22
2024-03-08T09:47:15.007Z,8.54
2024-03-08T09:50:18.867Z,8.42
2024-03-08T09:53:23.363Z,8.57
2024-03-08T09:56:28.640Z,8.84
2024-03-08T09:59:49.221Z,8.98
2024-03-08T10:02:54.813Z,9.20
2024-03-08T10:06:01.283Z,9.72
2024-03-08T10:09:04.041Z,9.24
2024-03-08T10:12:07.568Z,9.76
2024-03-08T10:15:10.791Z,9.86
2024-03-08T10:18:14.805Z,10.46
2024-03-08T10:21:18.226Z,10.67
2024-03-08T10:24:21.096Z,10.81
2024-03-08T10:27:23.741Z,10.77
2024-03-08T10:30:26.448Z,10.97
2024-03-08T10:33:30.428Z,11.45
2024-03-08T10:36:34.772Z,11.73
2024-03-08T10:39:38.682Z,12.19
2024-03-08T10:42:49.808Z,12.47
2024-03-08T10:46:02.249Z,12.56
2024-03-08T10:49:13.182Z,13.43
2024-03-08T10:52:18.225Z,14.60
2024-03-08T10:55:21.537Z,14.73
2024-03-08T10:58:28.040Z,15.12
2024-03-08T11:01:31.105Z,15.10
2024-03-08T11:04:35.482Z,15.32
2024-03-08T11:07:38.229Z,15.30
2024-03-08T11:10:52.282Z,15.52
2024-03-08T11:13:57.061Z,15.69
2024-03-08T11:16:59.983Z,15.44
2024-03-08T11:20:06.293Z,15.89
2024-03-08T11:23:11.548Z,16.39
2024-03-08T11:26:21.344Z,17.03
2024-03-08T11:29:40.524Z,17.19
2024-03-08T11:32:47.327Z,17.26
2024-03-08T11:35:51.450Z,17.22
2024-03-08T11:38:56.669Z,16.91
2024-03-08T11:41:59.821Z,16.94
2024-03-08T11:45:05.157Z,17.47
2024-03-08T11:48:08.345Z,17.65
2024-03-08T11:51:14.437Z,17.28
2024-03-08T11:54:17.448Z,17.40
2024-03-08T11:57:20.350Z,16.42
2024-03-08T12:00:27.070Z,15.73
2024-03-08T12:03:29.972Z,15.85
2024-03-08T12:06:41.858Z,16.74
2024-03-08T12:09:47.744Z,16.89
2024-03-08T12:12:52.590Z,17.00
2024-03-08T12:15:55.953Z,17.56
2024-03-08T12:18:59.008Z,16.99
2024-03-08T12:22:11.980Z,16.57
2024-03-08T12:25:14.824Z,15.64
2024-03-08T12:28:19.727Z,14.78
2024-03-08T12:31:23.595Z,13.83
2024-03-08T12:34:28.292Z,13.62
2024-03-08T12:37:33.499Z,13.37
2024-03-08T12:40:41.617Z,13.53
2024-03-08T12:43:49.519Z,13.74
2024-03-08T12:46:53.692Z,14.07
2024-03-08T12:49:56.820Z,14.86
2024-03-08T12:53:01.152Z,15.58
2024-03-08T12:56:09.181Z,16.36
2024-03-08T12:59:12.977Z,16.71
2024-03-08T13:02:17.888Z,16.93
2024-03-08T13:05:21.095Z,17.83
2024-03-08T13:08:26.058Z,18.35
2024-03-08T13:11:29.244Z,18.07
2024-03-08T13:14:32.946Z,18.10
2024-03-08T13:17:35.624Z,17.40
2024-03-08T13:20:46.442Z,17.52
2024-03-08T13:23:54.036Z,17.27
2024-03-08T13:26:56.765Z,17.48
2024-03-08T13:29:59.582Z,17.95
2024-03-08T13:33:02.298Z,17.46
2024-03-08T13:36:09.071Z,18.01
2024-03-08T13:39:17.265Z,18.22
2024-03-08T13:42:20.824Z,18.10
2024-03-08T13:45:25.429Z,18.21
2024-03-08T13:48:28.523Z,18.33
2024-03-08T13:51:31.750Z,18.44
2024-03-08T13:54:36.152Z,18.20
2024-03-08T13:57:38.780Z,18.24
2024-03-08T14:00:44.514Z,17.70
2024-03-08T14:03:47.216Z,17.29
2024-03-08T14:06:50.576Z,16.93
2024-03-08T14:09:54.644Z,16.47
2024-03-08T14:12:57.316Z,16.25
2024-03-08T14:16:00.228Z,15.62
2024-03-08T14:19:06.656Z,15.42
2024-03-08T14:22:11.785Z,15.46
2024-03-08T14:25:19.500Z,14.94
2024-03-08T14:28:23.820Z,14.44
2024-03-08T14:31:27.193Z,14.52
2024-03-08T14:34:30.764Z,14.37
2024-03-08T14:37:33.627Z,14.80
2024-03-08T14:40:38.247Z,14.65
2024-03-08T14:43:41.194Z,14.57
2024-03-08T14:46:44.598Z,14.43
2024-03-08T14:49:50.119Z,14.31
2024-03-08T14:52:53.344Z,14.31
2024-03-08T14:55:57.450Z,13.84
2024-03-08T14:59:00.841Z,13.16
2024-03-08T15:02:07.074Z,13.37
2024-03-08T15:05:10.532Z,13.15
2024-03-08T15:08:20.470Z,13.20
2024-03-08T15:11:26.184Z,13.12
2024-03-08T15:14:29.039Z,13.19
2024-03-08T15:17:31.778Z,13.10
2024-03-08T15:20:35.858Z,13.12
2024-03-08T15:23:38.692Z,13.05
2024-03-08T15:26:44.397Z,13.39
2024-03-08T15:29:50.063Z,13.21
2024-03-08T15:32:53.546Z,13.03
2024-03-08T15:36:01.615Z,13.23
2024-03-08T15:39:10.985Z,13.03
2024-03-08T15:42:14.983Z,13.06
2024-03-08T15:45:18.192Z,13.07
2024-03-08T15:48:20.830Z,12.87
2024-03-08T15:51:23.466Z,12.69
2024-03-08T15:54:26.588Z,12.67
2024-03-08T15:57:30.667Z,11.99
2024-03-08T16:00:36.778Z,11.69
2024-03-08T16:03:39.463Z,11.32
2024-03-08T16:06:42.146Z,11.17
2024-03-08T16:09:45.166Z,11.30
2024-03-08T16:12:49.173Z,11.33
2024-03-08T16:15:52.920Z,10.91
2024-03-08T16:18:55.578Z,10.84
2024-03-08T16:21:58.730Z,10.65
2024-03-08T16:25:01.446Z,10.88
2024-03-08T16:28:08.029Z,10.83
2024-03-08T16:31:12.075Z,10.55
2024-03-08T16:34:17.922Z,10.58
2024-03-08T16:37:20.857Z,10.47
2024-03-08T16:40:24.710Z,10.51
2024-03-08T16:43:28.828Z,10.38
2024-03-08T16:46:35.043Z,10.13
2024-03-08T16:49:43.252Z,10.11
2024-03-08T16:52:47.019Z,10.00
2024-03-08T16:55:52.388Z,10.00
2024-03-08T16:58:56.528Z,9.96
2024-03-08T17:02:01.984Z,9.91
2024-03-08T17:05:06.998Z,9.63
2024-03-08T17:08:11.491Z,9.66
2024-03-08T17:11:17.633Z,9.16
2024-03-08T17:14:23.207Z,9.28
2024-03-08T17:17:26.128Z,9.13
2024-03-08T17:20:31.191Z,9.29
2024-03-08T17:23:33.806Z,9.20
2024-03-08T17:26:36.423Z,9.20
2024-03-08T17:29:40.440Z,8.96
2024-03-08T17:32:43.189Z,9.01
2024-03-08T17:35:46.437Z,9.03
2024-03-08T17:38:51.401Z,8.75
2024-03-08T17:41:54.853Z,8.87
2024-03-08T17:45:01.768Z,8.53
2024-03-08T17:48:05.915Z,8.75
2024-03-08T17:51:08.717Z,8.73
2024-03-08T17:54:15.026Z,8.49
2024-03-08T17:57:18.930Z,8.51
2024-03-08T18:00:29.847Z,8.59
2024-03-08T18:03:33.085Z,8.57
2024-03-08T18:06:37.686Z,8.38
2024-03-08T18:09:40.355Z,8.52
2024-03-08T18:12:43.021Z,8.45
2024-03-08T18:15:48.549Z,8.40
2024-03-08T18:18:53.864Z,8.52
2024-03-08T18:21:56.632Z,8.57
2024-03-08T18:24:59.286Z,8.34
2024-03-08T18:28:06.767Z,8.18
2024-03-08T18:31:10.863Z,8.15
2024-03-08T18:34:13.509Z,8.12
2024-03-08T18:37:16.394Z,8.16
2024-03-08T18:40:23.263Z,7.97
2024-03-08T18:43:28.814Z,7.84
2024-03-08T18:46:33.974Z,7.92
2024-03-08T18:49:37.283Z,7.94
2024-03-08T18:52:40.614Z,8.07
2024-03-08T18:55:44.500Z,7.80
2024-03-08T18:58:47.470Z,8.02
2024-03-08T19:01:51.842Z,7.86
2024-03-08T19:04:56.433Z,7.80
2024-03-08T19:07:59.159Z,7.98
2024-03-08T19:11:02.068Z,7.63
2024-03-08T19:14:04.894Z,7.63
2024-03-08T19:17:11.771Z,7.48
2024-03-08T19:20:17.514Z,7.69
2024-03-08T19:23:20.265Z,7.52
2024-03-08T19:26:23.902Z,7.72
2024-03-08T19:29:26.538Z,7.50
2024-03-08T19:32:30.757Z,7.59
2024-03-08T19:35:33.418Z,7.77
2024-03-08T19:38:36.289Z,7.54
2024-03-08T19:41:39.371Z,7.53
2024-03-08T19:44:44.141Z,7.62
2024-03-08T19:47:48.926Z,7.70
2024-03-08T19:50:53.263Z,7.65
2024-03-08T19:53:55.903Z,7.68
2024-03-08T19:57:01.243Z,7.68
2024-03-08T20:00:04.992Z,7.60
2024-03-08T20:03:11.853Z,7.59
2024-03-08T20:06:14.494Z,7.05
2024-03-08T20:09:17.330Z,7.25
2024-03-08T20:12:20.915Z,7.36
2024-03-08T20:15:26.218Z,7.25
2024-03-08T20:18:30.507Z,7.25
2024-03-08T20:21:33.597Z,7.18
2024-03-08T20:24:36.292Z,7.22
2024-03-08T20:27:45.612Z,7.22
2024-03-08T20:30:48.522Z,7.25
2024-03-08T20:33:52.591Z,7.23
2024-03-08T20:36:55.233Z,7.07
2024-03-08T20:39:58.008Z,7.04
2024-03-08T20:43:01.367Z,7.00
2024-03-08T20:46:05.980Z,7.09
2024-03-08T20:49:10.085Z,7.11
2024-03-08T20:52:12.717Z,6.98
2024-03-08T20:55:16.542Z,7.10
2024-03-08T20:58:19.777Z,7.03
2024-03-08T21:01:27.639Z,6.79
2024-03-08T21:04:32.199Z,7.06
2024-03-08T21:07:37.904Z,6.80
2024-03-08T21:10:41.845Z,6.90
2024-03-08T21:13:45.080Z,6.89
2024-03-08T21:16:47.767Z,6.87
2024-03-08T21:19:51.794Z,6.94
2024-03-08T21:22:54.571Z,6.95
2024-03-08T21:25:57.271Z,6.95
2024-03-08T21:29:00.025Z,6.82
2024-03-08T21:32:05.425Z,6.68
2024-03-08T21:35:10.426Z,6.56
2024-03-08T21:38:13.250Z,6.82
2024-03-08T21:41:16.257Z,7.00
2024-03-08T21:44:18.921Z,6.76
2024-03-08T21:47:22.577Z,6.75
2024-03-08T21:50:28.490Z,6.75
2024-03-08T21:53:35.367Z,6.78
2024-03-08T21:56:39.351Z,6.70
2024-03-08T21:59:43.006Z,6.52
2024-03-08T22:02:47.263Z,6.51
2024-03-08T22:05:51.490Z,6.61
2024-03-08T22:08:54.377Z,6.31
2024-03-08T22:11:57.113Z,6.41
2024-03-08T22:15:00.135Z,6.24
2024-03-08T22:18:02.835Z,6.54
2024-03-08T22:21:07.933Z,6.43
2024-03-08T22:24:10.641Z,6.12
2024-03-08T22:27:13.286Z,6.14
2024-03-08T22:30:19.856Z,6.44
2024-03-08T22:33:24.028Z,6.30
2024-03-08T22:36:28.073Z,6.39
2024-03-08T22:39:31.337Z,6.58
2024-03-08T22:42:36.133Z,6.33
2024-03-08T22:45:39.512Z,6.47
2024-03-08T22:48:42.969Z,6.63
2024-03-08T22:51:48.034Z,6.40
2024-03-08T22:54:51.285Z,6.64
2024-03-08T22:57:54.236Z,6.51
2024-03-08T23:00:57.705Z,6.42
2024-03-08T23:04:00.508Z,6.39
2024-03-08T23:07:06.708Z,6.40
2024-03-08T23:10:11.743Z,6.57
2024-03-08T23:13:14.613Z,6.21
2024-03-08T23:16:17.749Z,6.04
2024-03-08T23:19:21.399Z,6.15
2024-03-08T23:22:25.797Z,6.44
2024-03-08T23:25:28.490Z,6.32
2024-03-08T23:28:31.645Z,6.32
2024-03-08T23:31:35.782Z,6.13
2024-03-08T23:34:38.605Z,6.13
2024-03-08T23:37:46.279Z,6.25
2024-03-08T23:40:50.923Z,6.17
2024-03-08T23:43:54.253Z,6.23
2024-03-08T23:46:57.302Z,6.15
2024-03-08T23:50:01.080Z,6.14
2024-03-08T23:53:07.331Z,6.04
2024-03-08T23:56:12.474Z,5.98
2024-03-08T23:59:15.478Z,6.18
